Fairmont, West Virginia
Current Conditions -  °F | °C
As of 9:26 AM on Wednesday 28 Jan 2015 (Local Time) from KCKB Reporting Station
Light Snow Light Snow  
Wind Chill:   Ceiling: 1500
Heat Index: 17°   Visibility: 2.5mi
Dew Point: 11°   Wind: 6mph
Humidity: 77%   Direction: 270°W
Pressure: 30.33"   Gusts: NA
Location:  39.48°N, 80.15°W
Report Text: KCKB 281426Z 27005KT 2 1/2SM -SN OVC015 M08/M12 A3033 RMK AO2 P0000 T10831117
Loading
Personal Weather Stations






























Interactive Weather Map New forecast layout! Learn more

10-Day Weather Forecast

Advertisements
Track Severe Weather on mobile